sensor_id;sensor_type;location;lat;lon;timestamp;temperature;humidity
29417;DHT22;28421;51.030;4.006;2022-10-31T05:02:51;20.90;99.90
29417;DHT22;28421;51.030;4.006;2022-10-31T05:05:19;20.80;99.90
29417;DHT22;28421;51.030;4.006;2022-10-31T05:07:47;20.90;99.90
29417;DHT22;28421;51.030;4.006;2022-10-31T05:10:15;20.80;99.90
29417;DHT22;28421;51.030;4.006;2022-10-31T05:12:56;20.80;99.90
29417;DHT22;28421;51.030;4.006;2022-10-31T05:15:53;20.80;99.90
29417;DHT22;28421;51.030;4.006;2022-10-31T05:18:37;20.90;99.90
29417;DHT22;28421;51.030;4.006;2022-10-31T05:21:21;20.90;99.90
29417;DHT22;28421;51.030;4.006;2022-10-31T05:23:51;20.80;99.90
29417;DHT22;28421;51.030;4.006;2022-10-31T05:26:19;20.80;99.90
29417;DHT22;28421;51.030;4.006;2022-10-31T05:28:46;20.80;99.90
29417;DHT22;28421;51.030;4.006;2022-10-31T05:31:12;20.80;99.90
29417;DHT22;28421;51.030;4.006;2022-10-31T05:33:37;20.80;99.90
29417;DHT22;28421;51.030;4.006;2022-10-31T05:36:22;20.80;99.90
29417;DHT22;28421;51.030;4.006;2022-10-31T05:38:57;20.80;99.90
29417;DHT22;28421;51.030;4.006;2022-10-31T05:41:25;20.80;99.90
29417;DHT22;28421;51.030;4.006;2022-10-31T05:43:54;20.80;99.90
29417;DHT22;28421;51.030;4.006;2022-10-31T05:46:26;20.80;99.90
29417;DHT22;28421;51.030;4.006;2022-10-31T05:49:10;20.80;99.90
29417;DHT22;28421;51.030;4.006;2022-10-31T05:52:11;20.80;99.90
29417;DHT22;28421;51.030;4.006;2022-10-31T05:54:44;20.80;99.90
29417;DHT22;28421;51.030;4.006;2022-10-31T05:57:10;20.80;99.90
29417;DHT22;28421;51.030;4.006;2022-10-31T05:59:36;20.80;99.90
29417;DHT22;28421;51.030;4.006;2022-10-31T06:02:02;20.80;99.90
29417;DHT22;28421;51.030;4.006;2022-10-31T06:04:53;20.80;99.90
29417;DHT22;28421;51.030;4.006;2022-10-31T06:07:19;20.80;99.90
29417;DHT22;28421;51.030;4.006;2022-10-31T06:09:45;20.80;99.90
29417;DHT22;28421;51.030;4.006;2022-10-31T06:12:11;20.80;99.90
29417;DHT22;28421;51.030;4.006;2022-10-31T06:14:57;20.80;99.90
29417;DHT22;28421;51.030;4.006;2022-10-31T06:17:22;20.80;99.90
29417;DHT22;28421;51.030;4.006;2022-10-31T06:19:48;20.80;99.90
29417;DHT22;28421;51.030;4.006;2022-10-31T06:22:19;20.80;99.90
29417;DHT22;28421;51.030;4.006;2022-10-31T06:24:45;20.80;99.90
29417;DHT22;28421;51.030;4.006;2022-10-31T06:27:21;20.80;99.90
29417;DHT22;28421;51.030;4.006;2022-10-31T06:29:48;20.80;99.90
29417;DHT22;28421;51.030;4.006;2022-10-31T06:32:23;20.80;99.90
29417;DHT22;28421;51.030;4.006;2022-10-31T06:34:49;20.80;99.90
29417;DHT22;28421;51.030;4.006;2022-10-31T06:37:15;20.80;99.90
29417;DHT22;28421;51.030;4.006;2022-10-31T06:39:44;20.80;99.90
29417;DHT22;28421;51.030;4.006;2022-10-31T06:42:11;20.80;99.90
29417;DHT22;28421;51.030;4.006;2022-10-31T06:44:37;20.80;99.90
29417;DHT22;28421;51.030;4.006;2022-10-31T06:47:21;20.80;99.90
29417;DHT22;28421;51.030;4.006;2022-10-31T06:49:58;20.80;99.90
29417;DHT22;28421;51.030;4.006;2022-10-31T06:52:25;20.80;99.90
29417;DHT22;28421;51.030;4.006;2022-10-31T06:54:51;20.80;99.90
29417;DHT22;28421;51.030;4.006;2022-10-31T06:57:18;20.80;99.90
29417;DHT22;28421;51.030;4.006;2022-10-31T06:59:43;20.80;99.90
29417;DHT22;28421;51.030;4.006;2022-10-31T07:02:18;20.90;99.90
29417;DHT22;28421;51.030;4.006;2022-10-31T07:04:44;20.90;99.90
29417;DHT22;28421;51.030;4.006;2022-10-31T07:07:13;20.90;99.90
29417;DHT22;28421;51.030;4.006;2022-10-31T07:09:39;20.90;99.90
29417;DHT22;28421;51.030;4.006;2022-10-31T07:12:05;20.90;99.90
29417;DHT22;28421;51.030;4.006;2022-10-31T07:14:35;20.90;99.90
29417;DHT22;28421;51.030;4.006;2022-10-31T07:17:01;20.90;99.90
29417;DHT22;28421;51.030;4.006;2022-10-31T07:19:33;20.80;99.90
29417;DHT22;28421;51.030;4.006;2022-10-31T07:21:59;20.90;99.90
29417;DHT22;28421;51.030;4.006;2022-10-31T07:24:27;20.90;99.90
29417;DHT22;28421;51.030;4.006;2022-10-31T07:27:18;20.90;99.90
29417;DHT22;28421;51.030;4.006;2022-10-31T07:29:46;20.90;99.90
29417;DHT22;28421;51.030;4.006;2022-10-31T07:32:14;20.90;99.90
29417;DHT22;28421;51.030;4.006;2022-10-31T07:34:46;21.00;99.90
29417;DHT22;28421;51.030;4.006;2022-10-31T07:37:20;21.00;99.90
29417;DHT22;28421;51.030;4.006;2022-10-31T07:39:47;21.10;99.90
29417;DHT22;28421;51.030;4.006;2022-10-31T07:42:13;21.10;99.90
29417;DHT22;28421;51.030;4.006;2022-10-31T07:44:42;21.00;99.90
29417;DHT22;28421;51.030;4.006;2022-10-31T07:47:14;21.00;99.90
29417;DHT22;28421;51.030;4.006;2022-10-31T07:49:58;21.00;99.90
29417;DHT22;28421;51.030;4.006;2022-10-31T07:52:42;21.00;99.90
29417;DHT22;28421;51.030;4.006;2022-10-31T07:55:28;21.00;99.90
29417;DHT22;28421;51.030;4.006;2022-10-31T07:57:58;21.00;99.90
29417;DHT22;28421;51.030;4.006;2022-10-31T08:00:24;21.00;99.90
29417;DHT22;28421;51.030;4.006;2022-10-31T08:02:57;21.00;99.90
29417;DHT22;28421;51.030;4.006;2022-10-31T08:05:58;21.00;99.90
29417;DHT22;28421;51.030;4.006;2022-10-31T08:08:47;21.10;99.90
29417;DHT22;28421;51.030;4.006;2022-10-31T08:11:13;21.00;99.90
29417;DHT22;28421;51.030;4.006;2022-10-31T08:13:38;21.00;99.90
29417;DHT22;28421;51.030;4.006;2022-10-31T08:16:04;21.00;99.90
29417;DHT22;28421;51.030;4.006;2022-10-31T08:18:35;21.00;99.90
29417;DHT22;28421;51.030;4.006;2022-10-31T08:21:03;21.00;99.90
29417;DHT22;28421;51.030;4.006;2022-10-31T08:23:29;21.00;99.90
29417;DHT22;28421;51.030;4.006;2022-10-31T08:25:55;20.90;99.90
29417;DHT22;28421;51.030;4.006;2022-10-31T08:28:22;20.90;99.90
29417;DHT22;28421;51.030;4.006;2022-10-31T08:30:50;20.90;99.90
29417;DHT22;28421;51.030;4.006;2022-10-31T08:33:33;20.90;99.90
29417;DHT22;28421;51.030;4.006;2022-10-31T08:36:17;21.00;99.90
29417;DHT22;28421;51.030;4.006;2022-10-31T08:38:58;20.90;99.90
29417;DHT22;28421;51.030;4.006;2022-10-31T08:41:26;20.90;99.90
29417;DHT22;28421;51.030;4.006;2022-10-31T08:43:52;20.90;99.90
29417;DHT22;28421;51.030;4.006;2022-10-31T08:46:18;20.90;99.90
29417;DHT22;28421;51.030;4.006;2022-10-31T08:48:44;20.90;99.90
29417;DHT22;28421;51.030;4.006;2022-10-31T08:51:10;21.00;99.90
29417;DHT22;28421;51.030;4.006;2022-10-31T08:53:36;20.90;99.90
29417;DHT22;28421;51.030;4.006;2022-10-31T08:56:20;20.90;99.90
29417;DHT22;28421;51.030;4.006;2022-10-31T08:58:48;20.90;99.90
29417;DHT22;28421;51.030;4.006;2022-10-31T09:01:14;20.90;99.90
29417;DHT22;28421;51.030;4.006;2022-10-31T09:03:41;20.90;99.90
29417;DHT22;28421;51.030;4.006;2022-10-31T09:06:09;20.90;99.90
29417;DHT22;28421;51.030;4.006;2022-10-31T09:08:36;20.90;99.90
29417;DHT22;28421;51.030;4.006;2022-10-31T09:11:03;20.90;99.90
29417;DHT22;28421;51.030;4.006;2022-10-31T09:13:47;20.90;99.90
29417;DHT22;28421;51.030;4.006;2022-10-31T09:16:32;20.90;99.90
29417;DHT22;28421;51.030;4.006;2022-10-31T09:18:58;21.00;99.90
29417;DHT22;28421;51.030;4.006;2022-10-31T09:21:23;21.00;99.90
29417;DHT22;28421;51.030;4.006;2022-10-31T09:23:49;20.90;99.90
29417;DHT22;28421;51.030;4.006;2022-10-31T09:26:15;21.00;99.90
29417;DHT22;28421;51.030;4.006;2022-10-31T09:28:55;21.10;99.90
29417;DHT22;28421;51.030;4.006;2022-10-31T09:31:23;21.10;99.90
29417;DHT22;28421;51.030;4.006;2022-10-31T09:34:02;21.10;99.90
29417;DHT22;28421;51.030;4.006;2022-10-31T09:36:40;21.00;99.90
29417;DHT22;28421;51.030;4.006;2022-10-31T09:39:13;21.00;99.90
29417;DHT22;28421;51.030;4.006;2022-10-31T09:42:01;21.00;99.90
29417;DHT22;28421;51.030;4.006;2022-10-31T09:45:05;21.00;99.90
29417;DHT22;28421;51.030;4.006;2022-10-31T09:48:22;21.00;99.90
29417;DHT22;28421;51.030;4.006;2022-10-31T09:51:10;21.00;99.90
29417;DHT22;28421;51.030;4.006;2022-10-31T09:54:12;21.00;99.90
29417;DHT22;28421;51.030;4.006;2022-10-31T09:56:39;21.00;99.90
29417;DHT22;28421;51.030;4.006;2022-10-31T10:02:12;21.00;99.90
29417;DHT22;28421;51.030;4.006;2022-10-31T10:04:57;21.00;99.90
29417;DHT22;28421;51.030;4.006;2022-10-31T10:11:01;20.90;99.90
29417;DHT22;28421;51.030;4.006;2022-10-31T10:14:26;20.90;99.90
29417;DHT22;28421;51.030;4.006;2022-10-31T10:17:02;20.90;99.90
29417;DHT22;28421;51.030;4.006;2022-10-31T10:25:10;20.90;99.90
29417;DHT22;28421;51.030;4.006;2022-10-31T10:27:53;20.90;99.90
29417;DHT22;28421;51.030;4.006;2022-10-31T10:30:26;20.80;99.90
29417;DHT22;28421;51.030;4.006;2022-10-31T10:33:02;20.80;99.90
29417;DHT22;28421;51.030;4.006;2022-10-31T10:35:34;20.90;99.90
29417;DHT22;28421;51.030;4.006;2022-10-31T10:40:29;21.10;99.90
29417;DHT22;28421;51.030;4.006;2022-10-31T10:43:12;21.10;99.90
29417;DHT22;28421;51.030;4.006;2022-10-31T10:49:01;21.10;99.90
29417;DHT22;28421;51.030;4.006;2022-10-31T10:52:08;21.10;99.90
29417;DHT22;28421;51.030;4.006;2022-10-31T10:57:55;21.20;99.90
29417;DHT22;28421;51.030;4.006;2022-10-31T11:00:24;21.20;99.90
29417;DHT22;28421;51.030;4.006;2022-10-31T11:02:50;21.20;99.90
29417;DHT22;28421;51.030;4.006;2022-10-31T11:05:55;21.20;99.90
29417;DHT22;28421;51.030;4.006;2022-10-31T11:08:34;21.30;99.90
29417;DHT22;28421;51.030;4.006;2022-10-31T11:11:10;21.20;99.90
29417;DHT22;28421;51.030;4.006;2022-10-31T11:13:37;21.30;99.90
29417;DHT22;28421;51.030;4.006;2022-10-31T11:16:08;21.20;99.90
29417;DHT22;28421;51.030;4.006;2022-10-31T11:18:38;21.10;99.90
29417;DHT22;28421;51.030;4.006;2022-10-31T11:21:05;21.10;99.90
29417;DHT22;28421;51.030;4.006;2022-10-31T11:23:32;21.10;99.90
29417;DHT22;28421;51.030;4.006;2022-10-31T11:26:04;21.10;99.90
29417;DHT22;28421;51.030;4.006;2022-10-31T11:28:32;21.10;99.90
29417;DHT22;28421;51.030;4.006;2022-10-31T11:31:11;21.10;99.90
29417;DHT22;28421;51.030;4.006;2022-10-31T11:34:00;21.10;99.90
29417;DHT22;28421;51.030;4.006;2022-10-31T11:36:30;21.20;99.90
29417;DHT22;28421;51.030;4.006;2022-10-31T11:38:59;21.20;99.90
29417;DHT22;28421;51.030;4.006;2022-10-31T11:41:33;21.20;99.90
29417;DHT22;28421;51.030;4.006;2022-10-31T11:44:10;21.20;99.90
29417;DHT22;28421;51.030;4.006;2022-10-31T11:46:40;21.20;99.90
29417;DHT22;28421;51.030;4.006;2022-10-31T11:49:17;21.30;99.90
29417;DHT22;28421;51.030;4.006;2022-10-31T11:51:49;21.20;99.90
29417;DHT22;28421;51.030;4.006;2022-10-31T11:54:30;21.20;99.90
29417;DHT22;28421;51.030;4.006;2022-10-31T11:56:57;21.20;99.90
29417;DHT22;28421;51.030;4.006;2022-10-31T11:59:29;21.30;99.90
29417;DHT22;28421;51.030;4.006;2022-10-31T12:01:57;21.30;99.90
29417;DHT22;28421;51.030;4.006;2022-10-31T12:04:40;21.30;99.90
29417;DHT22;28421;51.030;4.006;2022-10-31T12:07:07;21.40;99.90
29417;DHT22;28421;51.030;4.006;2022-10-31T12:09:35;21.40;99.90
29417;DHT22;28421;51.030;4.006;2022-10-31T12:15:11;21.50;99.90
29417;DHT22;28421;51.030;4.006;2022-10-31T12:17:48;21.60;99.90
29417;DHT22;28421;51.030;4.006;2022-10-31T12:51:02;21.70;99.90
29417;DHT22;28421;51.030;4.006;2022-10-31T12:53:45;21.70;99.90
29417;DHT22;28421;51.030;4.006;2022-10-31T12:56:27;21.70;99.90
29417;DHT22;28421;51.030;4.006;2022-10-31T13:01:59;21.70;99.90
29417;DHT22;28421;51.030;4.006;2022-10-31T13:07:37;21.70;99.90
29417;DHT22;28421;51.030;4.006;2022-10-31T13:10:25;21.70;99.90
29417;DHT22;28421;51.030;4.006;2022-10-31T13:12:57;21.70;99.90
29417;DHT22;28421;51.030;4.006;2022-10-31T13:15:26;21.80;99.90
29417;DHT22;28421;51.030;4.006;2022-10-31T13:18:01;21.80;99.90
29417;DHT22;28421;51.030;4.006;2022-10-31T13:20:32;21.90;99.90
29417;DHT22;28421;51.030;4.006;2022-10-31T13:25:42;21.90;99.90
29417;DHT22;28421;51.030;4.006;2022-10-31T13:28:28;21.90;99.90
29417;DHT22;28421;51.030;4.006;2022-10-31T13:30:56;21.90;99.90
29417;DHT22;28421;51.030;4.006;2022-10-31T13:33:34;21.90;99.90
29417;DHT22;28421;51.030;4.006;2022-10-31T13:38:54;21.90;99.90
29417;DHT22;28421;51.030;4.006;2022-10-31T13:44:24;21.80;99.90
29417;DHT22;28421;51.030;4.006;2022-10-31T13:46:52;21.80;99.90
29417;DHT22;28421;51.030;4.006;2022-10-31T13:51:49;22.00;99.90
29417;DHT22;28421;51.030;4.006;2022-10-31T13:54:22;22.00;99.90
29417;DHT22;28421;51.030;4.006;2022-10-31T13:56:51;22.10;99.90
29417;DHT22;28421;51.030;4.006;2022-10-31T13:59:23;22.20;99.90
29417;DHT22;28421;51.030;4.006;2022-10-31T14:02:00;22.20;99.90
29417;DHT22;28421;51.030;4.006;2022-10-31T14:04:32;22.20;99.90
29417;DHT22;28421;51.030;4.006;2022-10-31T14:12:14;22.30;99.90
29417;DHT22;28421;51.030;4.006;2022-10-31T14:14:50;22.30;99.90
29417;DHT22;28421;51.030;4.006;2022-10-31T14:17:22;22.30;99.90
29417;DHT22;28421;51.030;4.006;2022-10-31T14:22:39;22.30;99.90
29417;DHT22;28421;51.030;4.006;2022-10-31T14:32:25;22.10;99.90
29417;DHT22;28421;51.030;4.006;2022-10-31T14:48:24;21.50;99.90
29417;DHT22;28421;51.030;4.006;2022-10-31T14:50:52;21.50;99.90
29417;DHT22;28421;51.030;4.006;2022-10-31T14:53:25;21.50;99.90
29417;DHT22;28421;51.030;4.006;2022-10-31T14:55:53;21.50;99.90
29417;DHT22;28421;51.030;4.006;2022-10-31T14:58:40;21.50;99.90
29417;DHT22;28421;51.030;4.006;2022-10-31T15:01:15;21.50;99.90
29417;DHT22;28421;51.030;4.006;2022-10-31T15:03:45;21.50;99.90
29417;DHT22;28421;51.030;4.006;2022-10-31T15:06:17;21.50;99.90
29417;DHT22;28421;51.030;4.006;2022-10-31T15:08:51;21.50;99.90
29417;DHT22;28421;51.030;4.006;2022-10-31T15:11:22;21.50;99.90
29417;DHT22;28421;51.030;4.006;2022-10-31T15:13:50;21.50;99.90
29417;DHT22;28421;51.030;4.006;2022-10-31T15:16:30;21.50;99.90
29417;DHT22;28421;51.030;4.006;2022-10-31T15:19:04;21.50;99.90
29417;DHT22;28421;51.030;4.006;2022-10-31T15:21:31;21.50;99.90
29417;DHT22;28421;51.030;4.006;2022-10-31T15:23:59;21.40;99.90
29417;DHT22;28421;51.030;4.006;2022-10-31T15:26:47;21.40;99.90
29417;DHT22;28421;51.030;4.006;2022-10-31T15:29:15;21.50;99.90
29417;DHT22;28421;51.030;4.006;2022-10-31T15:31:54;21.40;99.90
29417;DHT22;28421;51.030;4.006;2022-10-31T15:34:50;21.40;99.90
29417;DHT22;28421;51.030;4.006;2022-10-31T15:37:19;21.40;99.90
29417;DHT22;28421;51.030;4.006;2022-10-31T15:39:46;21.40;99.90
29417;DHT22;28421;51.030;4.006;2022-10-31T15:42:19;21.40;99.90
29417;DHT22;28421;51.030;4.006;2022-10-31T15:44:51;21.40;99.90
29417;DHT22;28421;51.030;4.006;2022-10-31T15:47:19;21.40;99.90
29417;DHT22;28421;51.030;4.006;2022-10-31T15:49:53;21.40;99.90
29417;DHT22;28421;51.030;4.006;2022-10-31T15:55:00;21.30;99.90
29417;DHT22;28421;51.030;4.006;2022-10-31T15:57:26;21.30;99.90
29417;DHT22;28421;51.030;4.006;2022-10-31T15:59:52;21.30;99.90
29417;DHT22;28421;51.030;4.006;2022-10-31T16:02:24;21.30;99.90
29417;DHT22;28421;51.030;4.006;2022-10-31T16:05:01;21.20;99.90
29417;DHT22;28421;51.030;4.006;2022-10-31T16:07:28;21.20;99.90
29417;DHT22;28421;51.030;4.006;2022-10-31T16:09:59;21.20;99.90
29417;DHT22;28421;51.030;4.006;2022-10-31T16:12:46;21.20;99.90
29417;DHT22;28421;51.030;4.006;2022-10-31T16:15:16;21.20;99.90
29417;DHT22;28421;51.030;4.006;2022-10-31T16:17:45;21.20;99.90
29417;DHT22;28421;51.030;4.006;2022-10-31T16:20:25;21.10;99.90
29417;DHT22;28421;51.030;4.006;2022-10-31T16:22:53;21.10;99.90
29417;DHT22;28421;51.030;4.006;2022-10-31T16:25:29;21.10;99.90
29417;DHT22;28421;51.030;4.006;2022-10-31T16:28:02;21.10;99.90
29417;DHT22;28421;51.030;4.006;2022-10-31T16:33:02;21.10;99.90
29417;DHT22;28421;51.030;4.006;2022-10-31T16:35:33;21.00;99.90
29417;DHT22;28421;51.030;4.006;2022-10-31T16:37:59;21.00;99.90
29417;DHT22;28421;51.030;4.006;2022-10-31T16:40:25;21.10;99.90
29417;DHT22;28421;51.030;4.006;2022-10-31T16:42:50;21.10;99.90
29417;DHT22;28421;51.030;4.006;2022-10-31T16:45:22;21.00;99.90
29417;DHT22;28421;51.030;4.006;2022-10-31T16:47:48;21.00;99.90
29417;DHT22;28421;51.030;4.006;2022-10-31T16:50:17;21.00;99.90
29417;DHT22;28421;51.030;4.006;2022-10-31T16:52:43;21.00;99.90
29417;DHT22;28421;51.030;4.006;2022-10-31T16:55:13;20.90;99.90
29417;DHT22;28421;51.030;4.006;2022-10-31T16:57:45;20.90;99.90
29417;DHT22;28421;51.030;4.006;2022-10-31T17:00:16;20.90;99.90
29417;DHT22;28421;51.030;4.006;2022-10-31T17:02:43;20.90;99.90
29417;DHT22;28421;51.030;4.006;2022-10-31T17:05:13;20.90;99.90
29417;DHT22;28421;51.030;4.006;2022-10-31T17:07:40;20.90;99.90
29417;DHT22;28421;51.030;4.006;2022-10-31T17:10:06;20.80;99.90
29417;DHT22;28421;51.030;4.006;2022-10-31T17:12:32;20.80;99.90
29417;DHT22;28421;51.030;4.006;2022-10-31T17:14:58;20.80;99.90
29417;DHT22;28421;51.030;4.006;2022-10-31T17:17:24;20.80;99.90
29417;DHT22;28421;51.030;4.006;2022-10-31T17:19:49;20.80;99.90
29417;DHT22;28421;51.030;4.006;2022-10-31T17:22:15;20.80;99.90
29417;DHT22;28421;51.030;4.006;2022-10-31T17:24:41;20.80;99.90
29417;DHT22;28421;51.030;4.006;2022-10-31T17:27:06;20.80;99.90
29417;DHT22;28421;51.030;4.006;2022-10-31T17:29:32;20.80;99.90
29417;DHT22;28421;51.030;4.006;2022-10-31T17:31:58;20.80;99.90
29417;DHT22;28421;51.030;4.006;2022-10-31T17:34:24;20.80;99.90
29417;DHT22;28421;51.030;4.006;2022-10-31T17:36:51;20.80;99.90
29417;DHT22;28421;51.030;4.006;2022-10-31T17:39:20;20.80;99.90
29417;DHT22;28421;51.030;4.006;2022-10-31T17:41:50;20.80;99.90
29417;DHT22;28421;51.030;4.006;2022-10-31T17:44:17;20.80;99.90
29417;DHT22;28421;51.030;4.006;2022-10-31T17:46:43;20.80;99.90
29417;DHT22;28421;51.030;4.006;2022-10-31T17:49:12;20.70;99.90
29417;DHT22;28421;51.030;4.006;2022-10-31T17:51:37;20.70;99.90
29417;DHT22;28421;51.030;4.006;2022-10-31T17:54:03;20.70;99.90
29417;DHT22;28421;51.030;4.006;2022-10-31T17:56:31;20.70;99.90
29417;DHT22;28421;51.030;4.006;2022-10-31T17:58:57;20.70;99.90
29417;DHT22;28421;51.030;4.006;2022-10-31T18:01:23;20.70;99.90
29417;DHT22;28421;51.030;4.006;2022-10-31T18:03:48;20.70;99.90
29417;DHT22;28421;51.030;4.006;2022-10-31T18:06:14;20.70;99.90
29417;DHT22;28421;51.030;4.006;2022-10-31T18:08:42;20.60;99.90
29417;DHT22;28421;51.030;4.006;2022-10-31T18:11:19;20.60;99.90
29417;DHT22;28421;51.030;4.006;2022-10-31T18:13:45;20.60;99.90
29417;DHT22;28421;51.030;4.006;2022-10-31T18:16:16;20.50;99.90
29417;DHT22;28421;51.030;4.006;2022-10-31T18:18:43;20.50;99.90
29417;DHT22;28421;51.030;4.006;2022-10-31T18:21:09;20.40;99.90
29417;DHT22;28421;51.030;4.006;2022-10-31T18:23:35;20.40;99.90
29417;DHT22;28421;51.030;4.006;2022-10-31T18:26:01;20.30;99.90
29417;DHT22;28421;51.030;4.006;2022-10-31T18:28:26;20.30;99.90
29417;DHT22;28421;51.030;4.006;2022-10-31T18:30:52;20.30;99.90
29417;DHT22;28421;51.030;4.006;2022-10-31T18:33:18;20.30;99.90
29417;DHT22;28421;51.030;4.006;2022-10-31T18:35:44;20.30;99.90
29417;DHT22;28421;51.030;4.006;2022-10-31T18:38:10;20.20;99.90
29417;DHT22;28421;51.030;4.006;2022-10-31T18:40:36;20.20;99.90
29417;DHT22;28421;51.030;4.006;2022-10-31T18:43:02;20.20;99.90
29417;DHT22;28421;51.030;4.006;2022-10-31T18:45:28;20.10;99.90
29417;DHT22;28421;51.030;4.006;2022-10-31T18:47:53;20.10;99.90
29417;DHT22;28421;51.030;4.006;2022-10-31T18:50:19;20.10;99.90
29417;DHT22;28421;51.030;4.006;2022-10-31T18:52:45;20.10;99.90
29417;DHT22;28421;51.030;4.006;2022-10-31T18:55:11;20.10;99.90
29417;DHT22;28421;51.030;4.006;2022-10-31T18:57:36;20.10;99.90
29417;DHT22;28421;51.030;4.006;2022-10-31T19:00:05;20.10;99.90
29417;DHT22;28421;51.030;4.006;2022-10-31T19:02:31;20.10;99.90
29417;DHT22;28421;51.030;4.006;2022-10-31T19:04:57;20.10;99.90
29417;DHT22;28421;51.030;4.006;2022-10-31T19:07:23;20.10;99.90
29417;DHT22;28421;51.030;4.006;2022-10-31T19:09:48;20.10;99.90
29417;DHT22;28421;51.030;4.006;2022-10-31T19:12:14;20.10;99.90
29417;DHT22;28421;51.030;4.006;2022-10-31T19:14:40;20.10;99.90
29417;DHT22;28421;51.030;4.006;2022-10-31T19:17:05;20.10;99.90
29417;DHT22;28421;51.030;4.006;2022-10-31T19:19:31;20.10;99.90
29417;DHT22;28421;51.030;4.006;2022-10-31T19:21:57;20.10;99.90
29417;DHT22;28421;51.030;4.006;2022-10-31T19:24:22;20.10;99.90
29417;DHT22;28421;51.030;4.006;2022-10-31T19:26:48;20.10;99.90
29417;DHT22;28421;51.030;4.006;2022-10-31T19:29:14;20.10;99.90
29417;DHT22;28421;51.030;4.006;2022-10-31T19:31:39;20.00;99.90
29417;DHT22;28421;51.030;4.006;2022-10-31T19:34:05;20.10;99.90
29417;DHT22;28421;51.030;4.006;2022-10-31T19:36:31;20.00;99.90
29417;DHT22;28421;51.030;4.006;2022-10-31T19:38:57;20.00;99.90
29417;DHT22;28421;51.030;4.006;2022-10-31T19:41:24;20.00;99.90
29417;DHT22;28421;51.030;4.006;2022-10-31T19:43:51;20.00;99.90
29417;DHT22;28421;51.030;4.006;2022-10-31T19:46:18;20.00;99.90
29417;DHT22;28421;51.030;4.006;2022-10-31T19:48:45;20.00;99.90
29417;DHT22;28421;51.030;4.006;2022-10-31T19:51:13;20.00;99.90
29417;DHT22;28421;51.030;4.006;2022-10-31T19:53:40;20.00;99.90
29417;DHT22;28421;51.030;4.006;2022-10-31T19:56:24;20.00;99.90
29417;DHT22;28421;51.030;4.006;2022-10-31T19:58:50;20.00;99.90
29417;DHT22;28421;51.030;4.006;2022-10-31T20:01:21;20.00;99.90
29417;DHT22;28421;51.030;4.006;2022-10-31T20:03:47;20.00;99.90
29417;DHT22;28421;51.030;4.006;2022-10-31T20:06:23;20.00;99.90
29417;DHT22;28421;51.030;4.006;2022-10-31T20:08:50;20.00;99.90
29417;DHT22;28421;51.030;4.006;2022-10-31T20:11:17;19.90;99.90
29417;DHT22;28421;51.030;4.006;2022-10-31T20:13:43;20.00;99.90
29417;DHT22;28421;51.030;4.006;2022-10-31T20:16:11;19.90;99.90
29417;DHT22;28421;51.030;4.006;2022-10-31T20:18:38;19.90;99.90
29417;DHT22;28421;51.030;4.006;2022-10-31T20:21:19;19.90;99.90
29417;DHT22;28421;51.030;4.006;2022-10-31T20:23:45;19.90;99.90
29417;DHT22;28421;51.030;4.006;2022-10-31T20:26:14;19.90;99.90
29417;DHT22;28421;51.030;4.006;2022-10-31T20:28:40;19.90;99.90
29417;DHT22;28421;51.030;4.006;2022-10-31T20:31:12;19.90;99.90
29417;DHT22;28421;51.030;4.006;2022-10-31T20:33:38;19.90;99.90
29417;DHT22;28421;51.030;4.006;2022-10-31T20:36:05;19.90;99.90
29417;DHT22;28421;51.030;4.006;2022-10-31T20:38:32;19.90;99.90
29417;DHT22;28421;51.030;4.006;2022-10-31T20:40:59;19.90;99.90
29417;DHT22;28421;51.030;4.006;2022-10-31T20:43:25;19.90;99.90
29417;DHT22;28421;51.030;4.006;2022-10-31T20:45:51;19.90;99.90
29417;DHT22;28421;51.030;4.006;2022-10-31T20:48:17;19.90;99.90
29417;DHT22;28421;51.030;4.006;2022-10-31T20:50:44;19.90;99.90
29417;DHT22;28421;51.030;4.006;2022-10-31T20:53:10;19.90;99.90
29417;DHT22;28421;51.030;4.006;2022-10-31T20:55:35;19.90;99.90
29417;DHT22;28421;51.030;4.006;2022-10-31T20:58:01;19.90;99.90
29417;DHT22;28421;51.030;4.006;2022-10-31T21:00:26;19.90;99.90
29417;DHT22;28421;51.030;4.006;2022-10-31T21:02:52;19.90;99.90
29417;DHT22;28421;51.030;4.006;2022-10-31T21:05:18;19.80;99.90
29417;DHT22;28421;51.030;4.006;2022-10-31T21:07:44;19.80;99.90
29417;DHT22;28421;51.030;4.006;2022-10-31T21:10:09;19.80;99.90
29417;DHT22;28421;51.030;4.006;2022-10-31T21:12:42;19.80;99.90
29417;DHT22;28421;51.030;4.006;2022-10-31T21:15:10;19.80;99.90
29417;DHT22;28421;51.030;4.006;2022-10-31T21:17:36;19.80;99.90
29417;DHT22;28421;51.030;4.006;2022-10-31T21:20:04;19.80;99.90
29417;DHT22;28421;51.030;4.006;2022-10-31T21:22:30;19.70;99.90
29417;DHT22;28421;51.030;4.006;2022-10-31T21:24:56;19.80;99.90
29417;DHT22;28421;51.030;4.006;2022-10-31T21:27:23;19.80;99.90
29417;DHT22;28421;51.030;4.006;2022-10-31T21:29:49;19.70;99.90
29417;DHT22;28421;51.030;4.006;2022-10-31T21:32:15;19.70;99.90
29417;DHT22;28421;51.030;4.006;2022-10-31T21:34:40;19.70;99.90
29417;DHT22;28421;51.030;4.006;2022-10-31T21:37:06;19.70;99.90
29417;DHT22;28421;51.030;4.006;2022-10-31T21:39:32;19.70;99.90
29417;DHT22;28421;51.030;4.006;2022-10-31T21:41:57;19.70;99.90
29417;DHT22;28421;51.030;4.006;2022-10-31T21:44:23;19.70;99.90
29417;DHT22;28421;51.030;4.006;2022-10-31T21:46:49;19.80;99.90
29417;DHT22;28421;51.030;4.006;2022-10-31T21:49:14;19.70;99.90
29417;DHT22;28421;51.030;4.006;2022-10-31T21:51:40;19.70;99.90
29417;DHT22;28421;51.030;4.006;2022-10-31T21:54:11;19.80;99.90
29417;DHT22;28421;51.030;4.006;2022-10-31T21:56:53;19.80;99.90
29417;DHT22;28421;51.030;4.006;2022-10-31T21:59:19;19.70;99.90
